TimeEDT,TemperatureF,Dew PointF,Humidity,Sea Level PressureIn,VisibilityMPH,Wind Direction,Wind SpeedMPH,Gust SpeedMPH,PrecipitationIn,Events,Conditions,WindDirDegrees,DateUTC
12:15 AM,68.0,66.2,94,30.06,10.0,Calm,Calm,-,N/A,,Clear,0,2013-07-16 04:15:00
12:35 AM,68.0,66.2,94,30.06,10.0,Calm,Calm,-,N/A,,Clear,0,2013-07-16 04:35:00
12:55 AM,69.8,66.2,88,30.06,10.0,Calm,Calm,-,N/A,,Clear,0,2013-07-16 04:55:00
1:15 AM,68.0,66.2,94,30.06,10.0,Calm,Calm,-,N/A,,Clear,0,2013-07-16 05:15:00
1:35 AM,68.0,66.2,94,30.06,10.0,Calm,Calm,-,N/A,,Clear,0,2013-07-16 05:35:00
1:55 AM,68.0,66.2,94,30.06,10.0,Calm,Calm,-,N/A,,Clear,0,2013-07-16 05:55:00
2:15 AM,68.0,66.2,94,30.06,10.0,Calm,Calm,-,N/A,,Clear,0,2013-07-16 06:15:00
2:35 AM,69.8,64.4,83,30.05,10.0,Calm,Calm,-,N/A,,Clear,0,2013-07-16 06:35:00
2:55 AM,66.2,64.4,94,30.05,10.0,Calm,Calm,-,N/A,,Clear,0,2013-07-16 06:55:00
3:15 AM,66.2,64.4,94,30.06,10.0,Calm,Calm,-,N/A,,Clear,0,2013-07-16 07:15:00
3:35 AM,66.2,64.4,94,30.06,10.0,Calm,Calm,-,N/A,,Clear,0,2013-07-16 07:35:00
3:55 AM,66.2,64.4,94,30.06,10.0,Calm,Calm,-,N/A,,Clear,0,2013-07-16 07:55:00
4:15 AM,66.2,64.4,94,30.06,10.0,Calm,Calm,-,N/A,,Clear,0,2013-07-16 08:15:00
4:35 AM,66.2,64.4,94,30.07,10.0,Calm,Calm,-,N/A,,Clear,0,2013-07-16 08:35:00
4:55 AM,66.2,64.4,94,30.07,10.0,Calm,Calm,-,N/A,,Clear,0,2013-07-16 08:55:00
5:15 AM,66.2,64.4,94,30.07,10.0,Calm,Calm,-,N/A,,Clear,0,2013-07-16 09:15:00
5:35 AM,66.2,64.4,94,30.08,10.0,NNW,3.5,-,N/A,,Clear,340,2013-07-16 09:35:00
5:55 AM,69.8,64.4,83,30.08,10.0,Calm,Calm,-,N/A,,Clear,0,2013-07-16 09:55:00
6:15 AM,69.8,66.2,88,30.09,9.0,NNW,3.5,-,N/A,,Clear,340,2013-07-16 10:15:00
6:35 AM,71.6,66.2,83,30.08,10.0,North,3.5,-,N/A,,Clear,360,2013-07-16 10:35:00
6:55 AM,73.4,66.2,78,30.10,7.0,North,3.5,-,N/A,,Clear,360,2013-07-16 10:55:00
7:15 AM,75.2,68.0,78,30.09,10.0,North,3.5,-,N/A,,Clear,360,2013-07-16 11:15:00
7:35 AM,77.0,68.0,74,30.10,10.0,North,5.8,-,N/A,,Clear,360,2013-07-16 11:35:00
7:55 AM,78.8,68.0,69,30.10,10.0,North,6.9,-,N/A,,Clear,10,2013-07-16 11:55:00
8:15 AM,78.8,68.0,69,30.10,10.0,North,6.9,-,N/A,,Partly Cloudy,10,2013-07-16 12:15:00
8:35 AM,80.6,68.0,65,30.10,10.0,NNE,8.1,-,N/A,,Scattered Clouds,20,2013-07-16 12:35:00
8:55 AM,80.6,68.0,65,30.10,10.0,North,6.9,-,N/A,,Partly Cloudy,10,2013-07-16 12:55:00
9:15 AM,82.4,68.0,62,30.10,10.0,NNE,4.6,-,N/A,,Clear,20,2013-07-16 13:15:00
9:35 AM,82.4,68.0,62,30.11,10.0,North,4.6,-,N/A,,Scattered Clouds,10,2013-07-16 13:35:00
9:55 AM,82.4,68.0,62,30.11,10.0,NNE,5.8,-,N/A,,Mostly Cloudy,20,2013-07-16 13:55:00
10:15 AM,84.2,68.0,58,30.11,10.0,North,6.9,-,N/A,,Scattered Clouds,10,2013-07-16 14:15:00
10:35 AM,84.2,68.0,58,30.11,10.0,NNE,8.1,-,N/A,,Clear,20,2013-07-16 14:35:00
10:55 AM,86.0,68.0,55,30.12,10.0,North,6.9,-,N/A,,Clear,360,2013-07-16 14:55:00
11:15 AM,86.0,66.2,51,30.12,10.0,NNW,5.8,-,N/A,,Clear,330,2013-07-16 15:15:00
11:35 AM,86.0,66.2,51,30.11,10.0,NNE,8.1,-,N/A,,Clear,30,2013-07-16 15:35:00
11:55 AM,87.8,64.4,46,30.11,10.0,NNE,9.2,-,N/A,,Clear,20,2013-07-16 15:55:00
12:15 PM,87.8,66.2,49,30.11,10.0,North,6.9,16.1,N/A,,Scattered Clouds,360,2013-07-16 16:15:00
12:35 PM,87.8,66.2,49,30.11,10.0,NNW,4.6,-,N/A,,Mostly Cloudy,340,2013-07-16 16:35:00
12:55 PM,89.6,64.4,43,30.11,10.0,North,9.2,-,N/A,,Partly Cloudy,10,2013-07-16 16:55:00
1:15 PM,87.8,66.2,49,30.10,10.0,North,9.2,-,N/A,,Scattered Clouds,10,2013-07-16 17:15:00
1:35 PM,89.6,64.4,43,30.10,10.0,North,5.8,-,N/A,,Mostly Cloudy,360,2013-07-16 17:35:00
1:55 PM,87.8,64.4,46,30.10,10.0,North,3.5,-,N/A,,Scattered Clouds,10,2013-07-16 17:55:00
2:15 PM,86.0,66.2,51,30.10,10.0,NE,5.8,-,N/A,,Scattered Clouds,50,2013-07-16 18:15:00
2:35 PM,84.2,66.2,55,30.10,10.0,East,6.9,-,N/A,,Scattered Clouds,90,2013-07-16 18:35:00
2:55 PM,84.2,66.2,55,30.10,10.0,East,5.8,-,N/A,,Scattered Clouds,90,2013-07-16 18:55:00
3:15 PM,84.2,64.4,51,30.10,10.0,East,4.6,-,N/A,,Clear,90,2013-07-16 19:15:00
3:35 PM,84.2,64.4,51,30.10,10.0,ESE,5.8,-,N/A,,Clear,120,2013-07-16 19:35:00
3:55 PM,84.2,66.2,55,30.10,10.0,Calm,Calm,-,N/A,,Clear,0,2013-07-16 19:55:00
4:15 PM,84.2,64.4,51,30.10,10.0,ESE,5.8,-,N/A,,Clear,110,2013-07-16 20:15:00
4:35 PM,82.4,64.4,54,30.10,10.0,ESE,5.8,-,N/A,,Clear,110,2013-07-16 20:35:00
4:55 PM,82.4,64.4,54,30.11,10.0,East,3.5,-,N/A,,Clear,90,2013-07-16 20:55:00
5:15 PM,82.4,64.4,54,30.10,10.0,East,4.6,-,N/A,,Clear,90,2013-07-16 21:15:00
5:35 PM,82.4,66.2,58,30.10,10.0,ESE,4.6,-,N/A,,Clear,120,2013-07-16 21:35:00
5:55 PM,82.4,66.2,58,30.11,10.0,East,8.1,-,N/A,,Clear,100,2013-07-16 21:55:00
6:15 PM,78.8,64.4,61,30.11,10.0,East,5.8,-,N/A,,Partly Cloudy,80,2013-07-16 22:15:00
6:35 PM,77.0,64.4,65,30.12,10.0,East,5.8,-,N/A,,Mostly Cloudy,80,2013-07-16 22:35:00
6:55 PM,75.2,62.6,65,30.13,10.0,East,5.8,-,N/A,,Partly Cloudy,90,2013-07-16 22:55:00
7:15 PM,75.2,64.4,69,30.13,10.0,East,5.8,-,N/A,,Clear,90,2013-07-16 23:15:00
7:35 PM,73.4,64.4,73,30.14,10.0,East,4.6,-,N/A,,Partly Cloudy,90,2013-07-16 23:35:00
7:55 PM,73.4,62.6,69,30.14,10.0,ESE,4.6,-,N/A,,Mostly Cloudy,110,2013-07-16 23:55:00
8:15 PM,73.4,62.6,69,30.14,10.0,East,4.6,-,N/A,,Scattered Clouds,90,2013-07-17 00:15:00
8:35 PM,71.6,62.6,73,30.15,10.0,East,4.6,-,N/A,,Scattered Clouds,80,2013-07-17 00:35:00
8:55 PM,71.6,60.8,69,30.16,10.0,East,4.6,-,N/A,,Mostly Cloudy,100,2013-07-17 00:55:00
9:15 PM,71.6,60.8,69,30.17,10.0,East,3.5,-,N/A,,Partly Cloudy,100,2013-07-17 01:15:00
9:35 PM,71.6,60.8,69,30.17,10.0,ESE,3.5,-,N/A,,Partly Cloudy,120,2013-07-17 01:35:00
9:55 PM,71.6,59.0,64,30.17,10.0,East,3.5,-,N/A,,Scattered Clouds,100,2013-07-17 01:55:00
10:15 PM,71.6,59.0,64,30.17,10.0,Calm,Calm,-,N/A,,Partly Cloudy,0,2013-07-17 02:15:00
10:35 PM,71.6,57.2,60,30.18,10.0,ESE,5.8,-,N/A,,Partly Cloudy,110,2013-07-17 02:35:00
10:55 PM,71.6,57.2,60,30.18,10.0,ESE,4.6,-,N/A,,Scattered Clouds,120,2013-07-17 02:55:00
11:15 PM,69.8,57.2,64,30.18,10.0,SE,3.5,-,N/A,,Scattered Clouds,140,2013-07-17 03:15:00
11:35 PM,69.8,57.2,64,30.18,10.0,ESE,3.5,-,N/A,,Partly Cloudy,120,2013-07-17 03:35:00
11:55 PM,69.8,55.4,60,30.18,10.0,East,3.5,-,N/A,,Partly Cloudy,80,2013-07-17 03:55:00